Time;durP1;ratioP1;P1;durP2;ratioP2;P2;SDS_P1;SDS_P2;PMS_P1;PMS_P2;Temp;Humidity;BMP_temperature;BMP_pressure;BME280_temperature;BME280_humidity;BME280_pressure;Samples;Min_cycle;Max_cycle;Signal;HPM_P1;HPM_P2
2023/12/07 00:01:05;;;;;;;17.38;12.55;;;;;;;0.05;100.00;101946.78;5062995;28;20021;-61
2023/12/07 00:03:31;;;;;;;16.13;13.13;;;;;;;0.04;100.00;101937.25;5065650;28;20437;-61
2023/12/07 00:05:56;;;;;;;15.02;12.80;;;;;;;0.00;100.00;101936.44;5071139;28;20024;-60
2023/12/07 00:08:21;;;;;;;16.23;12.63;;;;;;;-0.01;100.00;101932.09;5071052;28;20025;-61
2023/12/07 00:10:46;;;;;;;16.45;12.27;;;;;;;-0.05;100.00;101927.78;5070540;28;20028;-60
2023/12/07 00:13:12;;;;;;;16.80;12.57;;;;;;;-0.07;100.00;101927.81;5066100;28;20513;-61
2023/12/07 00:15:37;;;;;;;17.45;12.27;;;;;;;-0.10;100.00;101921.78;5063296;28;20110;-60
2023/12/07 00:18:03;;;;;;;16.45;13.05;;;;;;;-0.11;100.00;101922.66;5064732;28;20029;-59
2023/12/07 00:20:29;;;;;;;14.55;12.13;;;;;;;-0.14;100.00;101926.19;5070612;28;20029;-60
2023/12/07 00:22:55;;;;;;;14.95;12.90;;;;;;;-0.16;100.00;101920.13;5066912;28;20057;-61
2023/12/07 00:25:21;;;;;;;17.65;13.65;;;;;;;-0.17;100.00;101922.75;5063163;28;20032;-61
2023/12/07 00:27:47;;;;;;;16.58;13.02;;;;;;;-0.20;100.00;101926.25;5071047;28;20025;-61
2023/12/07 00:30:12;;;;;;;16.25;14.00;;;;;;;-0.20;100.00;101926.25;5069995;28;20052;-61
2023/12/07 00:32:37;;;;;;;19.35;14.52;;;;;;;-0.21;100.00;101932.38;5062536;28;20122;-61
2023/12/07 00:35:03;;;;;;;17.02;13.93;;;;;;;-0.26;100.00;101937.66;5070804;28;20465;-61
2023/12/07 00:37:28;;;;;;;18.63;13.80;;;;;;;-0.27;100.00;101935.94;5070650;28;20029;-60
2023/12/07 00:39:54;;;;;;;20.15;13.90;;;;;;;-0.27;100.00;101929.84;5063899;28;20032;-60
2023/12/07 00:42:19;;;;;;;17.83;14.65;;;;;;;-0.27;100.00;101930.69;5065674;28;20114;-61
2023/12/07 00:44:44;;;;;;;17.33;14.32;;;;;;;-0.30;100.00;101930.78;5062324;28;20078;-60
2023/12/07 00:47:10;;;;;;;19.35;14.07;;;;;;;-0.32;100.00;101929.06;5065631;28;20049;-61
2023/12/07 00:49:41;;;;;;;19.33;14.50;;;;;;;-0.33;100.00;101920.38;5071725;28;20493;-61
2023/12/07 00:52:07;;;;;;;19.80;14.63;;;;;;;-0.36;100.00;101922.16;5069647;28;20112;-61
2023/12/07 00:54:32;;;;;;;18.77;14.43;;;;;;;-0.35;100.00;101923.88;5071171;28;20136;-61
2023/12/07 00:56:58;;;;;;;19.27;15.13;;;;;;;-0.40;100.00;101922.19;5072378;28;20024;-61
2023/12/07 00:59:23;;;;;;;17.08;14.20;;;;;;;-0.42;100.00;101928.31;5072733;28;20033;-61
2023/12/07 01:01:49;;;;;;;18.80;14.77;;;;;;;-0.42;100.00;101923.09;5071912;28;20035;-61
2023/12/07 01:04:14;;;;;;;18.88;15.48;;;;;;;-0.45;100.00;101925.75;5063019;28;20033;-61
2023/12/07 01:06:39;;;;;;;22.60;17.27;;;;;;;-0.46;100.00;101929.25;5070202;28;20111;-61
2023/12/07 01:09:05;;;;;;;19.35;15.77;;;;;;;-0.44;100.00;101927.47;5074828;28;20029;-60
2023/12/07 01:11:30;;;;;;;20.65;16.45;;;;;;;-0.46;100.00;101930.09;5071772;28;20035;-60
2023/12/07 01:13:55;;;;;;;19.73;14.82;;;;;;;-0.46;100.00;101937.06;5073154;28;20032;-60
2023/12/07 01:16:20;;;;;;;21.05;16.15;;;;;;;-0.46;100.00;101944.91;5074164;28;20071;-61
2023/12/07 01:18:46;;;;;;;24.30;15.85;;;;;;;-0.47;100.00;101944.03;5071419;28;20504;-61
2023/12/07 01:21:12;;;;;;;21.33;16.20;;;;;;;-0.47;100.00;101938.81;5073773;28;20032;-61
2023/12/07 01:23:37;;;;;;;21.30;16.83;;;;;;;-0.45;100.00;101941.41;5067896;28;20032;-61
2023/12/07 01:26:02;;;;;;;20.98;16.70;;;;;;;-0.45;100.00;101938.78;5073254;28;20028;-61
2023/12/07 01:28:28;;;;;;;23.85;16.23;;;;;;;-0.45;100.00;101944.88;5071559;28;20036;-62
2023/12/07 01:30:54;;;;;;;20.58;17.25;;;;;;;-0.45;100.00;101944.88;5072116;28;20042;-61
2023/12/07 01:33:19;;;;;;;23.50;17.58;;;;;;;-0.45;100.00;101944.88;5070431;28;20025;-61
2023/12/07 01:35:45;;;;;;;23.35;16.45;;;;;;;-0.45;100.00;101942.28;5067095;28;20033;-61
2023/12/07 01:38:10;;;;;;;21.65;16.70;;;;;;;-0.44;100.00;101937.91;5067665;28;20032;-61
2023/12/07 01:40:36;;;;;;;22.45;16.67;;;;;;;-0.44;100.00;101938.75;5067915;28;20381;-62
2023/12/07 01:43:01;;;;;;;23.65;17.77;;;;;;;-0.42;100.00;101930.91;5072431;28;20102;-61
2023/12/07 01:45:26;;;;;;;27.40;19.02;;;;;;;-0.43;100.00;101932.69;5071081;28;20041;-61
2023/12/07 01:47:54;;;;;;;28.17;18.95;;;;;;;-0.43;100.00;101942.25;5069582;28;20044;-61
2023/12/07 01:50:23;;;;;;;28.98;18.20;;;;;;;-0.40;100.00;101945.69;5067214;28;20035;-61
2023/12/07 01:52:51;;;;;;;27.20;18.70;;;;;;;-0.36;100.00;101943.91;5071011;28;20056;-61
2023/12/07 01:55:16;;;;;;;56.92;18.70;;;;;;;-0.34;100.00;101942.13;5070212;28;20158;-61
2023/12/07 01:57:44;;;;;;;25.92;17.92;;;;;;;-0.34;100.00;101944.72;5067903;28;20051;-61
2023/12/07 02:00:10;;;;;;;44.75;17.60;;;;;;;-0.30;100.00;101940.34;5071438;28;20389;-61
2023/12/07 02:02:36;;;;;;;43.45;17.20;;;;;;;-0.28;100.00;101946.41;5065193;28;20033;-61
2023/12/07 02:05:01;;;;;;;64.72;17.85;;;;;;;-0.25;100.00;101949.84;5071884;28;20032;-61
2023/12/07 02:07:27;;;;;;;54.42;17.58;;;;;;;-0.24;100.00;101945.47;5071404;28;20473;-61
2023/12/07 02:09:53;;;;;;;57.63;17.35;;;;;;;-0.21;100.00;101937.59;5068925;28;20397;-61
2023/12/07 02:12:19;;;;;;;117.95;17.55;;;;;;;-0.21;100.00;101935.84;5067231;28;20442;-60
2023/12/07 02:14:45;;;;;;;115.32;18.05;;;;;;;-0.20;100.00;101941.91;5070079;28;20036;-61
2023/12/07 02:17:15;;;;;;;67.18;17.63;;;;;;;-0.20;100.00;101942.81;5068481;28;20016;-61
2023/12/07 02:19:59;;;;;;;71.60;17.20;;;;;;;-0.19;100.00;101944.50;5069749;28;20050;-61
2023/12/07 02:22:30;;;;;;;43.78;17.05;;;;;;;-0.15;100.00;101944.47;5067870;28;20036;-61
2023/12/07 02:25:06;;;;;;;62.55;16.10;;;;;;;-0.09;100.00;101954.84;5072156;28;20535;-61
2023/12/07 02:27:39;;;;;;;28.63;14.93;;;;;;;-0.09;100.00;101958.31;5068389;28;20107;-61
2023/12/07 02:30:06;;;;;;;42.72;15.57;;;;;;;-0.05;100.00;101962.63;5065123;28;20166;-61
2023/12/07 02:32:32;;;;;;;24.83;14.43;;;;;;;0.01;100.00;101964.25;5072383;28;20516;-60
2023/12/07 02:34:57;;;;;;;28.50;14.38;;;;;;;0.04;100.00;101955.53;5065436;28;20171;-61
2023/12/07 02:37:27;;;;;;;40.75;15.57;;;;;;;0.05;100.00;101955.50;5069638;28;20028;-61
2023/12/07 02:39:53;;;;;;;45.33;15.30;;;;;;;0.07;100.00;101958.09;5071343;28;20077;-61
2023/12/07 02:42:20;;;;;;;43.00;15.52;;;;;;;0.09;100.00;101956.31;5067228;28;20119;-61
2023/12/07 02:44:46;;;;;;;56.22;15.50;;;;;;;0.09;100.00;101944.13;5064332;28;20033;-61
2023/12/07 02:47:11;;;;;;;60.92;14.90;;;;;;;0.10;100.00;101953.69;5068200;28;20036;-60
2023/12/07 02:49:36;;;;;;;50.45;15.27;;;;;;;0.09;100.00;101946.72;5064428;28;20028;-61
2023/12/07 02:52:02;;;;;;;56.78;15.55;;;;;;;0.09;100.00;101954.56;5066315;28;20093;-60
2023/12/07 02:54:27;;;;;;;65.28;15.98;;;;;;;0.11;100.00;101954.56;5072211;28;20040;-61
2023/12/07 02:56:52;;;;;;;39.70;15.02;;;;;;;0.12;100.00;101957.13;5071280;28;20024;-61
2023/12/07 02:59:17;;;;;;;46.30;15.23;;;;;;;0.14;100.00;101944.91;5071105;28;20028;-61
2023/12/07 03:01:43;;;;;;;77.47;15.65;;;;;;;0.17;100.00;101955.31;5069465;28;20028;-61
2023/12/07 03:04:08;;;;;;;56.75;15.20;;;;;;;0.15;100.00;101958.81;5066353;28;20534;-61
2023/12/07 03:06:33;;;;;;;43.03;15.45;;;;;;;0.17;100.00;101952.72;5071172;28;20052;-61
2023/12/07 03:08:59;;;;;;;45.47;16.23;;;;;;;0.18;100.00;101954.44;5069312;28;20029;-61
2023/12/07 03:11:24;;;;;;;83.22;16.30;;;;;;;0.24;100.00;101947.41;5071274;28;20028;-61
2023/12/07 03:13:49;;;;;;;66.22;15.45;;;;;;;0.25;100.00;101955.22;5067742;28;20021;-61
2023/12/07 03:16:14;;;;;;;88.20;16.13;;;;;;;0.21;100.00;101945.69;5067934;28;20052;-61
2023/12/07 03:18:40;;;;;;;89.05;15.48;;;;;;;0.16;100.00;101957.94;5071371;28;20041;-60
2023/12/07 03:21:06;;;;;;;47.70;15.18;;;;;;;0.12;100.00;101962.38;5064502;28;20025;-61
2023/12/07 03:23:31;;;;;;;52.90;15.23;;;;;;;0.09;100.00;101957.19;5066346;28;20028;-61
2023/12/07 03:25:56;;;;;;;50.72;16.25;;;;;;;0.10;100.00;101960.66;5064783;28;20055;-60
2023/12/07 03:28:21;;;;;;;28.30;15.18;;;;;;;0.11;100.00;101963.25;5067228;28;20112;-61
2023/12/07 03:30:47;;;;;;;68.88;16.63;;;;;;;0.11;100.00;101957.16;5067178;28;20025;-61
2023/12/07 03:33:12;;;;;;;72.72;16.05;;;;;;;0.06;100.00;101954.59;5068915;28;20099;-61
2023/12/07 03:35:37;;;;;;;28.70;15.38;;;;;;;0.04;100.00;101958.16;5065889;28;20036;-61
2023/12/07 03:38:03;;;;;;;32.58;15.32;;;;;;;0.03;100.00;101964.25;5069611;28;20033;-61
2023/12/07 03:40:28;;;;;;;61.95;15.77;;;;;;;0.01;100.00;101968.63;5063799;28;20095;-61
2023/12/07 03:42:53;;;;;;;74.50;16.77;;;;;;;-0.04;100.00;101964.31;5069518;28;20032;-61
2023/12/07 03:45:18;;;;;;;71.28;16.55;;;;;;;-0.07;100.00;101974.81;5071457;28;20021;-61
2023/12/07 03:47:44;;;;;;;55.08;16.80;;;;;;;-0.08;100.00;101972.25;5070101;28;20040;-61
2023/12/07 03:50:09;;;;;;;61.10;16.27;;;;;;;-0.13;100.00;101974.91;5063898;28;20180;-61
2023/12/07 03:52:34;;;;;;;27.92;15.90;;;;;;;-0.12;100.00;101979.25;5067499;28;20016;-61
2023/12/07 03:55:00;;;;;;;49.45;17.20;;;;;;;-0.14;100.00;101978.41;5064297;28;20107;-61
2023/12/07 03:57:25;;;;;;;32.40;16.08;;;;;;;-0.12;100.00;101983.59;5067447;28;20037;-61
2023/12/07 03:59:52;;;;;;;34.33;16.45;;;;;;;-0.10;100.00;101981.84;5063831;28;20025;-61
2023/12/07 04:02:17;;;;;;;36.28;16.40;;;;;;;-0.09;100.00;101983.56;5067277;28;20093;-61
2023/12/07 04:04:42;;;;;;;33.47;17.60;;;;;;;-0.09;100.00;101989.66;5064364;28;20024;-61
2023/12/07 04:07:08;;;;;;;25.33;16.67;;;;;;;-0.06;100.00;101986.16;5067482;28;20024;-61
2023/12/07 04:09:33;;;;;;;65.78;16.80;;;;;;;-0.08;100.00;101974.88;5063538;28;20393;-61
2023/12/07 04:11:58;;;;;;;62.90;16.98;;;;;;;-0.10;100.00;101982.72;5070927;28;20086;-61
2023/12/07 04:14:23;;;;;;;46.95;18.08;;;;;;;-0.13;100.00;101982.75;5066393;28;20028;-61
2023/12/07 04:16:49;;;;;;;47.53;16.83;;;;;;;-0.15;100.00;101979.31;5070850;28;20079;-61
2023/12/07 04:19:14;;;;;;;33.03;17.75;;;;;;;-0.14;100.00;101991.47;5068414;28;20032;-61
2023/12/07 04:21:40;;;;;;;25.70;16.05;;;;;;;-0.11;100.00;101994.03;5073954;28;20078;-61
2023/12/07 04:24:05;;;;;;;32.08;17.23;;;;;;;-0.09;100.00;101994.00;5072963;28;20024;-61
2023/12/07 04:26:30;;;;;;;37.95;17.13;;;;;;;-0.08;100.00;101998.38;5074806;28;20055;-61
2023/12/07 04:28:56;;;;;;;42.78;16.85;;;;;;;-0.12;100.00;101997.50;5067549;28;20055;-60
2023/12/07 04:31:21;;;;;;;65.80;19.13;;;;;;;-0.14;100.00;102001.06;5072980;28;20502;-61
2023/12/07 04:33:46;;;;;;;42.42;18.55;;;;;;;-0.17;100.00;101994.09;5073010;28;20055;-61
2023/12/07 04:36:12;;;;;;;39.75;18.92;;;;;;;-0.15;100.00;101996.69;5070758;28;20073;-61
2023/12/07 04:38:37;;;;;;;44.33;19.65;;;;;;;-0.15;100.00;101997.59;5068976;28;20038;-61
2023/12/07 04:41:03;;;;;;;39.22;19.92;;;;;;;-0.15;100.00;102000.19;5068167;28;20504;-60
2023/12/07 04:43:28;;;;;;;44.33;18.75;;;;;;;-0.16;100.00;102002.81;5068965;28;20051;-60
2023/12/07 04:45:53;;;;;;;37.78;17.30;;;;;;;-0.21;100.00;102000.28;5070476;28;20103;-61
2023/12/07 04:48:19;;;;;;;34.22;17.98;;;;;;;-0.25;100.00;101993.34;5067543;28;20501;-60
2023/12/07 04:50:44;;;;;;;64.07;17.83;;;;;;;-0.27;100.00;101993.34;5073481;28;20028;-61
2023/12/07 04:53:09;;;;;;;57.92;18.60;;;;;;;-0.29;100.00;101981.22;5070226;28;20553;-61
2023/12/07 04:55:35;;;;;;;43.13;17.70;;;;;;;-0.31;100.00;101989.06;5074492;28;20035;-61
2023/12/07 04:58:01;;;;;;;42.40;18.98;;;;;;;-0.29;100.00;101989.91;5073867;28;20031;-61
2023/12/07 05:00:27;;;;;;;43.05;18.40;;;;;;;-0.26;100.00;101986.41;5070192;28;20381;-61
2023/12/07 05:02:52;;;;;;;43.20;15.60;;;;;;;-0.26;100.00;101982.03;5070557;28;20525;-61
2023/12/07 05:05:18;;;;;;;26.20;14.55;;;;;;;-0.26;100.00;101971.59;5068809;28;20154;-60
2023/12/07 05:07:43;;;;;;;37.83;15.40;;;;;;;-0.26;100.00;101968.13;5069971;28;20016;-61
2023/12/07 05:10:09;;;;;;;28.13;14.38;;;;;;;-0.25;100.00;101959.41;5068128;28;20032;-61
2023/12/07 05:12:35;;;;;;;41.42;14.52;;;;;;;-0.25;100.00;101964.63;5070273;28;20107;-61
2023/12/07 05:15:01;;;;;;;33.92;14.23;;;;;;;-0.23;100.00;101962.88;5073677;28;20031;-61
2023/12/07 05:17:26;;;;;;;44.45;14.15;;;;;;;-0.21;100.00;101959.34;5068687;28;20020;-61
2023/12/07 05:19:51;;;;;;;43.97;14.98;;;;;;;-0.19;100.00;101962.78;5067566;28;20028;-61
2023/12/07 05:22:16;;;;;;;41.33;15.75;;;;;;;-0.18;100.00;101961.06;5069894;28;20036;-61
2023/12/07 05:24:42;;;;;;;42.22;15.10;;;;;;;-0.20;100.00;101961.09;5066541;28;20078;-61
2023/12/07 05:27:07;;;;;;;59.50;15.32;;;;;;;-0.17;100.00;101967.16;5069542;28;20094;-61
2023/12/07 05:29:32;;;;;;;46.08;15.23;;;;;;;-0.17;100.00;101964.53;5073850;28;20381;-61
2023/12/07 05:31:58;;;;;;;45.70;15.52;;;;;;;-0.17;100.00;101954.94;5071566;28;20021;-61
2023/12/07 05:34:23;;;;;;;40.63;14.70;;;;;;;-0.18;100.00;101955.84;5069022;28;20043;-61
2023/12/07 05:36:48;;;;;;;49.00;14.70;;;;;;;-0.19;100.00;101954.97;5067749;28;20020;-61
2023/12/07 05:39:14;;;;;;;35.42;14.93;;;;;;;-0.20;100.00;101953.25;5065901;28;20397;-61
2023/12/07 05:41:39;;;;;;;62.88;15.77;;;;;;;-0.17;100.00;101959.31;5069575;28;20028;-61
2023/12/07 05:44:05;;;;;;;32.58;14.32;;;;;;;-0.19;100.00;101956.72;5064705;28;20028;-61
2023/12/07 05:46:30;;;;;;;63.40;16.73;;;;;;;-0.15;100.00;101960.16;5069139;28;20027;-61
2023/12/07 05:48:55;;;;;;;52.40;16.02;;;;;;;-0.14;100.00;101946.22;5066061;28;20055;-61
2023/12/07 05:51:21;;;;;;;36.70;15.10;;;;;;;-0.13;100.00;101959.25;5066508;28;20113;-61
2023/12/07 05:53:46;;;;;;;40.55;15.07;;;;;;;-0.10;100.00;101954.00;5068541;28;20478;-61
2023/12/07 05:56:11;;;;;;;39.17;16.02;;;;;;;-0.09;100.00;101953.09;5069931;28;20020;-61
2023/12/07 05:58:37;;;;;;;59.65;15.45;;;;;;;-0.07;100.00;101955.69;5073542;28;20028;-61
2023/12/07 06:01:03;;;;;;;33.97;14.80;;;;;;;-0.08;100.00;101948.75;5069076;28;20032;-60
2023/12/07 06:03:29;;;;;;;44.08;15.00;;;;;;;-0.07;100.00;101953.06;5069277;28;20055;-61
2023/12/07 06:05:55;;;;;;;61.40;15.85;;;;;;;-0.08;100.00;101948.75;5072524;28;20463;-61
2023/12/07 06:08:21;;;;;;;81.95;14.98;;;;;;;-0.08;100.00;101941.75;5072351;28;20032;-59
2023/12/07 06:10:47;;;;;;;35.10;14.88;;;;;;;-0.05;100.00;101948.69;5072320;28;20066;-61
2023/12/07 06:13:13;;;;;;;34.03;14.52;;;;;;;-0.07;100.00;101958.28;5071800;28;20063;-60
2023/12/07 06:15:39;;;;;;;44.67;15.48;;;;;;;-0.07;100.00;101956.53;5070332;28;20020;-61
2023/12/07 06:18:04;;;;;;;40.75;14.82;;;;;;;-0.08;100.00;101949.59;5068470;28;20154;-60
2023/12/07 06:20:29;;;;;;;48.90;14.60;;;;;;;-0.07;100.00;101948.69;5068758;28;20040;-61
2023/12/07 06:22:55;;;;;;;37.22;15.13;;;;;;;-0.04;100.00;101945.19;5064459;28;20028;-60
2023/12/07 06:25:20;;;;;;;39.70;14.52;;;;;;;-0.02;100.00;101944.28;5068491;28;20392;-60
2023/12/07 06:27:46;;;;;;;28.35;12.90;;;;;;;0.02;100.00;101954.66;5065011;28;20557;-61
2023/12/07 06:30:11;;;;;;;39.38;13.32;;;;;;;0.01;100.00;101948.59;5067987;28;20566;-61
2023/12/07 06:32:37;;;;;;;47.97;13.98;;;;;;;0.04;100.00;101958.16;5069334;28;20104;-60
2023/12/07 06:35:04;;;;;;;42.30;13.18;;;;;;;0.04;100.00;101953.78;5069248;28;20025;-60
2023/12/07 06:37:30;;;;;;;27.08;12.13;;;;;;;0.07;100.00;101942.44;5067801;28;20028;-61
2023/12/07 06:39:55;;;;;;;30.90;13.23;;;;;;;0.08;100.00;101937.16;5070506;28;20427;-61
2023/12/07 06:42:20;;;;;;;45.45;12.95;;;;;;;0.10;100.00;101929.31;5070852;28;20123;-60
2023/12/07 06:44:49;;;;;;;30.23;12.70;;;;;;;0.11;100.00;101926.66;5067014;28;20436;-59
2023/12/07 06:47:15;;;;;;;34.27;12.20;;;;;;;0.11;100.00;101915.38;5070212;28;20041;-61
2023/12/07 06:49:40;;;;;;;34.05;12.50;;;;;;;0.10;100.00;101922.34;5070239;28;20025;-61
2023/12/07 06:52:05;;;;;;;34.55;12.73;;;;;;;0.10;100.00;101911.91;5066706;28;20505;-61
2023/12/07 06:54:31;;;;;;;39.13;12.98;;;;;;;0.14;100.00;101915.31;5066061;28;20028;-60
2023/12/07 06:56:56;;;;;;;24.20;12.98;;;;;;;0.15;100.00;101919.63;5069610;28;20029;-60
2023/12/07 06:59:21;;;;;;;42.88;12.55;;;;;;;0.14;100.00;101925.78;5070930;28;20028;-60
2023/12/07 07:01:46;;;;;;;45.35;13.23;;;;;;;0.15;100.00;101924.88;5071033;28;20163;-60
2023/12/07 07:04:12;;;;;;;42.60;12.73;;;;;;;0.16;100.00;101921.38;5069848;28;20020;-60
2023/12/07 07:06:39;;;;;;;29.20;12.73;;;;;;;0.20;100.00;101922.19;5062723;28;20033;-61
2023/12/07 07:09:05;;;;;;;37.13;12.57;;;;;;;0.18;100.00;101922.22;5063554;28;20043;-61
2023/12/07 07:11:30;;;;;;;31.85;13.35;;;;;;;0.17;100.00;101930.94;5068569;28;20115;-61
2023/12/07 07:13:55;;;;;;;32.58;13.30;;;;;;;0.18;100.00;101937.88;5062915;28;20374;-61
2023/12/07 07:16:20;;;;;;;38.97;13.98;;;;;;;0.18;100.00;101932.66;5063155;28;20029;-61
2023/12/07 07:18:46;;;;;;;35.75;14.25;;;;;;;0.16;100.00;101937.91;5063860;28;20382;-61
2023/12/07 07:21:11;;;;;;;55.08;14.80;;;;;;;0.16;100.00;101937.06;5064519;28;20024;-60
2023/12/07 07:23:37;;;;;;;33.25;14.80;;;;;;;0.13;100.00;101931.88;5061278;28;20028;-59
2023/12/07 07:26:03;;;;;;;36.47;14.60;;;;;;;0.11;100.00;101939.72;5062113;28;20032;-60
2023/12/07 07:28:28;;;;;;;45.92;15.63;;;;;;;0.10;100.00;101942.38;5064938;28;20063;-61
2023/12/07 07:30:53;;;;;;;44.45;16.30;;;;;;;0.07;100.00;101950.28;5065861;28;20029;-61
2023/12/07 07:33:18;;;;;;;37.35;16.85;;;;;;;0.05;100.00;101950.28;5064128;28;20470;-61
2023/12/07 07:35:44;;;;;;;29.17;16.55;;;;;;;0.04;100.00;101953.78;5059948;28;20033;-61
2023/12/07 07:38:09;;;;;;;31.35;16.48;;;;;;;0.05;100.00;101955.50;5062240;28;20565;-61
2023/12/07 07:40:35;;;;;;;36.00;16.90;;;;;;;0.04;100.00;101947.69;5064490;28;20020;-61
2023/12/07 07:43:01;;;;;;;34.72;17.42;;;;;;;0.04;100.00;101951.16;5062949;28;20478;-61
2023/12/07 07:45:26;;;;;;;30.48;17.45;;;;;;;0.04;100.00;101947.69;5064258;28;20028;-61
2023/12/07 07:47:51;;;;;;;32.50;18.85;;;;;;;0.04;100.00;101938.09;5063799;28;20047;-61
2023/12/07 07:50:17;;;;;;;36.17;18.48;;;;;;;0.03;100.00;101941.59;5065230;28;20063;-61
2023/12/07 07:52:42;;;;;;;37.53;18.80;;;;;;;0.04;100.00;101945.94;5066851;28;20082;-60
2023/12/07 07:55:09;;;;;;;35.67;18.60;;;;;;;0.06;100.00;101945.91;5062439;28;20041;-61
2023/12/07 07:57:35;;;;;;;35.78;17.85;;;;;;;0.06;100.00;101936.31;5067189;28;20024;-61
2023/12/07 08:00:00;;;;;;;45.33;18.73;;;;;;;0.06;100.00;101938.94;5065928;28;20446;-61
2023/12/07 08:02:25;;;;;;;31.55;19.02;;;;;;;0.06;100.00;101933.72;5068929;28;20063;-61
2023/12/07 08:04:53;;;;;;;35.03;17.80;;;;;;;0.08;100.00;101936.31;5063694;28;20033;-61
2023/12/07 08:07:19;;;;;;;37.28;17.55;;;;;;;0.09;100.00;101933.66;5065579;28;20093;-61
2023/12/07 08:09:44;;;;;;;32.88;18.48;;;;;;;0.10;100.00;101932.81;5064996;28;20490;-61
2023/12/07 08:12:09;;;;;;;41.70;18.90;;;;;;;0.11;100.00;101933.66;5065642;28;20040;-61
2023/12/07 08:14:35;;;;;;;47.30;19.15;;;;;;;0.13;100.00;101934.47;5060854;28;20024;-61
2023/12/07 08:17:01;;;;;;;30.88;17.80;;;;;;;0.11;100.00;101933.66;5068088;28;20461;-60
2023/12/07 08:19:26;;;;;;;35.30;20.00;;;;;;;0.12;100.00;101938.00;5057947;28;20028;-62
2023/12/07 08:21:51;;;;;;;33.80;17.73;;;;;;;0.13;100.00;101943.22;5065736;28;20036;-61
2023/12/07 08:24:17;;;;;;;35.28;17.70;;;;;;;0.11;100.00;101941.50;5067094;28;20029;-62
2023/12/07 08:26:43;;;;;;;31.63;18.23;;;;;;;0.11;100.00;101939.72;5069386;28;20491;-62
2023/12/07 08:29:08;;;;;;;36.03;17.38;;;;;;;0.11;100.00;101934.50;5063089;28;20029;-62
2023/12/07 08:31:33;;;;;;;29.83;17.13;;;;;;;0.10;100.00;101939.75;5060608;28;20024;-62
2023/12/07 08:34:00;;;;;;;30.48;17.98;;;;;;;0.10;100.00;101937.13;5065687;28;20034;-61
2023/12/07 08:36:26;;;;;;;34.08;18.23;;;;;;;0.10;100.00;101939.75;5066131;28;20029;-62
2023/12/07 08:38:51;;;;;;;31.63;18.98;;;;;;;0.12;100.00;101933.63;5061953;28;20388;-61
2023/12/07 08:41:16;;;;;;;29.52;17.83;;;;;;;0.14;100.00;101939.69;5062427;28;20033;-61
2023/12/07 08:43:41;;;;;;;30.77;17.17;;;;;;;0.14;100.00;101938.84;5067296;28;20033;-61
2023/12/07 08:46:07;;;;;;;29.08;17.08;;;;;;;0.14;100.00;101938.84;5065774;28;20090;-62
2023/12/07 08:48:33;;;;;;;28.60;17.67;;;;;;;0.14;100.00;101941.44;5059889;28;20480;-61
2023/12/07 08:50:59;;;;;;;29.77;17.48;;;;;;;0.15;100.00;101943.16;5060215;28;20111;-62
2023/12/07 08:53:24;;;;;;;32.08;18.65;;;;;;;0.18;100.00;101945.72;5064349;28;20155;-61
2023/12/07 08:55:49;;;;;;;32.00;18.85;;;;;;;0.17;100.00;101950.09;5066907;28;20036;-62
2023/12/07 08:58:15;;;;;;;32.05;18.85;;;;;;;0.20;100.00;101943.97;5062599;28;20446;-62
2023/12/07 09:00:40;;;;;;;32.47;19.23;;;;;;;0.23;100.00;101948.28;5061438;28;20107;-61
2023/12/07 09:03:05;;;;;;;33.45;18.02;;;;;;;0.24;100.00;101944.78;5061271;28;20032;-61
2023/12/07 09:05:31;;;;;;;31.95;18.10;;;;;;;0.24;100.00;101939.56;5059544;28;20112;-61
2023/12/07 09:07:56;;;;;;;29.77;17.40;;;;;;;0.27;100.00;101934.28;5066087;28;20025;-61
2023/12/07 09:10:22;;;;;;;35.05;19.27;;;;;;;0.28;100.00;101941.22;5063734;28;20033;-62
2023/12/07 09:12:48;;;;;;;35.15;19.58;;;;;;;0.29;100.00;101929.88;5064279;28;20035;-61
2023/12/07 09:15:13;;;;;;;34.00;19.95;;;;;;;0.31;100.00;101933.34;5068946;28;20028;-62
2023/12/07 09:17:39;;;;;;;35.13;19.80;;;;;;;0.31;100.00;101930.72;5068366;28;20492;-61
2023/12/07 09:20:12;;;;;;;38.47;21.15;;;;;;;0.32;100.00;101932.47;5072568;28;20024;-61
2023/12/07 09:22:46;;;;;;;35.45;20.35;;;;;;;0.34;100.00;101931.53;5071487;28;20054;-61
2023/12/07 09:25:13;;;;;;;36.55;20.52;;;;;;;0.38;100.00;101926.25;5074267;28;20028;-61
2023/12/07 09:27:39;;;;;;;37.45;21.90;;;;;;;0.41;100.00;101934.06;5069854;28;20039;-61
2023/12/07 09:30:12;;;;;;;38.75;21.88;;;;;;;0.42;100.00;101928.81;5069417;28;20063;-62
2023/12/07 09:32:42;;;;;;;39.97;22.20;;;;;;;0.44;100.00;101921.78;5068155;28;20078;-61
2023/12/07 09:35:14;;;;;;;40.55;23.02;;;;;;;0.47;100.00;101913.03;5070489;28;20028;-61
2023/12/07 09:37:40;;;;;;;44.22;23.02;;;;;;;0.51;100.00;101912.94;5067607;28;20086;-62
2023/12/07 09:40:07;;;;;;;39.15;21.92;;;;;;;0.53;100.00;101905.97;5070028;28;20037;-62
2023/12/07 09:42:33;;;;;;;39.33;22.35;;;;;;;0.58;100.00;101903.25;5070067;28;20489;-62
2023/12/07 09:44:58;;;;;;;36.75;22.73;;;;;;;0.61;100.00;101900.56;5064385;28;20071;-61
2023/12/07 09:47:26;;;;;;;43.40;23.42;;;;;;;0.66;100.00;101903.13;5071430;28;20076;-62
2023/12/07 09:49:52;;;;;;;39.72;23.30;;;;;;;0.72;100.00;101897.78;5064764;28;20051;-61
2023/12/07 09:52:19;;;;;;;35.58;22.58;;;;;;;0.76;100.00;101891.59;5071000;28;20075;-61
2023/12/07 09:54:45;;;;;;;37.65;22.88;;;;;;;0.78;100.00;101888.94;5061038;28;20087;-61
2023/12/07 09:57:10;;;;;;;38.17;22.77;;;;;;;0.84;100.00;101881.00;5074318;28;20024;-61
2023/12/07 09:59:36;;;;;;;39.38;23.77;;;;;;;0.90;100.00;101873.03;5075402;28;20024;-61
2023/12/07 10:02:02;;;;;;;36.42;22.05;;;;;;;0.99;100.00;101870.22;5066436;28;20108;-61
2023/12/07 10:04:27;;;;;;;39.35;23.05;;;;;;;1.05;100.00;101864.88;5070631;28;20389;-61
2023/12/07 10:06:53;;;;;;;37.53;22.52;;;;;;;1.10;100.00;101854.31;5065974;28;20532;-61
2023/12/07 10:09:19;;;;;;;36.17;21.50;;;;;;;1.18;100.00;101847.13;5067403;28;20029;-61
2023/12/07 10:11:44;;;;;;;37.45;21.83;;;;;;;1.26;100.00;101844.38;5070257;28;20442;-61
2023/12/07 10:14:10;;;;;;;31.48;21.00;;;;;;;1.32;100.00;101843.41;5069567;28;20020;-61
2023/12/07 10:16:36;;;;;;;32.88;21.95;;;;;;;1.35;100.00;101838.94;5070830;28;20135;-61
2023/12/07 10:19:17;;;;;;;30.25;19.75;;;;;;;1.39;100.00;101839.72;5069640;28;20024;-61
2023/12/07 10:21:43;;;;;;;26.73;18.90;;;;;;;1.40;100.00;101831.84;5070284;28;20032;-61
2023/12/07 10:24:09;;;;;;;27.00;18.15;;;;;;;1.42;100.00;101823.97;5067465;28;20032;-61
2023/12/07 10:26:36;;;;;;;27.23;18.85;;;;;;;1.43;100.00;101820.44;5065591;28;20024;-61
2023/12/07 10:29:04;;;;;;;28.63;19.73;;;;;;;1.51;100.00;101815.88;5064420;28;20490;-61
2023/12/07 10:31:30;;;;;;;29.23;19.67;;;;;;;1.56;100.00;101815.78;5068373;28;20021;-61
2023/12/07 10:33:56;;;;;;;27.63;19.23;;;;;;;1.61;100.00;101816.53;5068478;28;20434;-61
2023/12/07 10:36:21;;;;;;;28.27;19.38;;;;;;;1.69;100.00;101811.97;5074408;28;20119;-61
2023/12/07 10:38:50;;;;;;;28.05;18.90;;;;;;;1.74;100.00;101810.09;5077460;28;20500;-61
2023/12/07 10:41:17;;;;;;;28.23;19.02;;;;;;;1.83;100.00;101815.13;5073094;28;20032;-60
2023/12/07 10:43:44;;;;;;;24.83;17.77;;;;;;;1.87;100.00;101802.81;5071089;28;20025;-61
2023/12/07 10:46:15;;;;;;;26.58;18.17;;;;;;;1.92;100.00;101800.94;5068458;28;20058;-61
2023/12/07 10:48:42;;;;;;;28.25;18.45;;;;;;;2.01;100.00;101792.81;5071230;28;20084;-61
2023/12/07 10:51:09;;;;;;;26.42;18.33;;;;;;;2.05;100.00;101788.41;5070523;28;20028;-61
2023/12/07 10:53:40;;;;;;;26.92;18.23;;;;;;;2.11;100.00;101789.97;5067018;28;20381;-61
2023/12/07 10:56:10;;;;;;;24.08;16.88;;;;;;;2.12;100.00;101779.47;5068923;28;20035;-61
2023/12/07 10:58:36;;;;;;;25.40;17.80;;;;;;;2.16;100.00;101782.84;5067770;28;20035;-61